Airfield :
LOGIN :

Register | Disclaimer

   EN    FR    IT 

 










Legend :    VFR   Marginal VFR   IFR   Intensive IFR   Very Intensive IFR
Visi :
Ceiling :
>= 8 km
>= 3000ft
5 to 8 km
1000 to 3000 ft
1500m to 5 km
500 to 1000 ft
800 to 1500m
200 to 500 ft
< 800m
< 200 ft
Symbols :   Thunderstorms  Fog  Heavy snow  Heavy precipitations  Wind > 20 kt
SIGMETs :     Misc.  Thunderstorms  Icing  Turbulence  Mountain Waves  Volcanic Ashes







- Airport Elevation : 468 ft
- IATA code : GRO


LEGE - Girona Costa Brava

CURRENT METAR :
  • 190500Z 03010KT 360V060 9999 FEW020 12/07 Q1021

EXPIRED METARs :
  • 190430Z 02011KT 9999 FEW020 12/07 Q1021
  • 190400Z 03011KT 9999 FEW020 12/07 Q1021
  • 190330Z 03009KT 9999 FEW020 12/07 Q1021
  • 190300Z 03007KT 9999 FEW020 12/08 Q1021
  • 190230Z 03008KT 9999 FEW020 12/08 Q1020

TAF TAF LEGE
Valid from the 19 at 00:00 until the 20 at 00:00 UTC


182300Z 1900/1924 36008KT 9999 FEW030 TX21/1913Z TN12/1906Z
BECMG 1907/1909 04012KT
No reported NOTAMs for that airfield.



MET'MAP, your aeronautical weather chart ! - Copyright ORBIFLY December 2007 - Disclaimer

ORBIFLY MET'MAP TEAM :

Programming & Development : Alexandra Zaïnal
Concept & Development : Baudouin d'Aumeries
Co-Development & Prog : Marc-Olivier Méhu
Technical & hardware support : Manuel Goepfert

Contact : metmap@orbifly.com




SOURCES & CREDITS :

   NOAA